Terminal Aerodrome Forecast
Issued by NWS Louisville, KY

Home | Current Version | Previous Version | Text Only | Print | Product List | Glossary On
Versions: 1 2 3 4 5 6 7 8 9 10 11 12 13 14 15 16 17
220
FTUS43 KLMK 251134
TAFBWG
TAF
KBWG 251134Z 2512/2612 25010KT P6SM VCSH OVC018
     FM251400 26013KT P6SM BKN045
     FM252200 27010KT P6SM FEW080 FEW200
     FM260000 25006KT P6SM FEW200=

USA.gov is the U.S. government's official web portal to all federal, state and local government web resources and services.